createdAt,value
2023-05-21T00:03:28.409Z,99988.00
2023-05-21T00:08:30.548Z,99985.72
2023-05-21T00:13:32.216Z,99989.09
2023-05-21T00:18:34.364Z,99978.97
2023-05-21T00:23:37.630Z,99978.97
2023-05-21T00:28:39.544Z,99984.03
2023-05-21T00:33:41.258Z,99977.34
2023-05-21T00:38:44.130Z,99979.13
2023-05-21T00:43:45.980Z,99980.88
2023-05-21T00:48:49.344Z,99970.78
2023-05-21T00:53:52.959Z,99975.03
2023-05-21T00:58:57.231Z,99962.41
2023-05-21T01:04:01.816Z,99951.44
2023-05-21T01:09:06.475Z,99955.69
2023-05-21T01:14:09.445Z,99957.41
2023-05-21T01:19:15.457Z,99949.84
2023-05-21T01:24:17.553Z,99952.41
2023-05-21T01:29:19.435Z,99950.75
2023-05-21T01:34:27.176Z,99950.78
2023-05-21T01:39:34.010Z,99938.16
2023-05-21T01:44:36.977Z,99945.78
2023-05-21T01:49:38.842Z,99939.91
2023-05-21T01:54:40.626Z,99934.88
2023-05-21T01:59:42.351Z,99936.59
2023-05-21T02:04:44.288Z,99927.34
2023-05-21T02:09:46.065Z,99927.34
2023-05-21T02:14:50.355Z,99930.69
2023-05-21T02:19:52.343Z,99934.06
2023-05-21T02:24:54.810Z,99936.63
2023-05-21T02:29:56.507Z,99934.09
2023-05-21T02:34:59.121Z,99930.78
2023-05-21T02:40:01.880Z,99925.72
2023-05-21T02:45:04.842Z,99924.00
2023-05-21T02:50:08.188Z,99937.50
2023-05-21T02:55:16.358Z,99932.44
2023-05-21T03:00:18.100Z,99940.06
2023-05-21T03:05:19.962Z,99930.78
2023-05-21T03:10:21.701Z,99929.13
2023-05-21T03:15:24.014Z,99937.56
2023-05-21T03:20:26.900Z,99933.31
2023-05-21T03:25:28.908Z,99927.38
2023-05-21T03:30:30.588Z,99931.59
2023-05-21T03:35:54.503Z,99932.41
2023-05-21T03:40:56.711Z,99933.25
2023-05-21T03:45:58.796Z,99932.31
2023-05-21T03:51:20.717Z,99943.91
2023-05-21T03:56:23.181Z,99943.66
2023-05-21T04:01:24.966Z,99936.44
2023-05-21T04:06:28.176Z,99930.84
2023-05-21T04:11:29.853Z,99929.81
2023-05-21T04:16:34.531Z,99931.94
2023-05-21T04:21:36.482Z,99937.03
2023-05-21T04:26:42.114Z,99937.19
2023-05-21T04:31:44.580Z,99922.75
2023-05-21T04:36:48.730Z,99940.69
2023-05-21T04:41:50.784Z,99937.47
2023-05-21T04:46:52.932Z,99932.50
2023-05-21T04:51:55.078Z,99938.78
2023-05-21T04:56:58.100Z,99932.91
2023-05-21T05:01:59.919Z,99921.03
2023-05-21T05:07:01.832Z,99927.94
2023-05-21T05:12:03.993Z,99927.66
2023-05-21T05:17:08.078Z,99931.75
2023-05-21T05:22:13.339Z,99936.78
2023-05-21T05:27:17.874Z,99929.91
2023-05-21T05:32:19.603Z,99938.81
2023-05-21T05:37:21.748Z,99939.53
2023-05-21T05:42:24.224Z,99938.00
2023-05-21T05:47:26.329Z,99931.91
2023-05-21T05:52:28.216Z,99924.94
2023-05-21T05:57:29.958Z,99928.75
2023-05-21T06:02:37.658Z,99933.88
2023-05-21T06:07:40.229Z,99933.34
2023-05-21T06:12:42.011Z,99935.66
2023-05-21T06:17:44.008Z,99935.94
2023-05-21T06:22:47.565Z,99924.38
2023-05-21T06:27:49.268Z,99928.91
2023-05-21T06:32:56.287Z,99918.38
2023-05-21T06:37:58.789Z,99926.19
2023-05-21T06:43:00.525Z,99925.81
2023-05-21T06:48:15.946Z,99926.41
2023-05-21T06:53:18.243Z,99924.72
2023-05-21T06:58:21.547Z,99928.06
2023-05-21T07:03:23.778Z,99923.41
2023-05-21T07:08:26.456Z,99927.38
2023-05-21T07:13:30.029Z,99926.19
2023-05-21T07:18:32.303Z,99919.78
2023-05-21T07:23:34.219Z,99910.78
2023-05-21T07:28:36.321Z,99924.78
2023-05-21T07:33:38.131Z,99923.50
2023-05-21T07:38:40.566Z,99935.06
2023-05-21T07:43:44.152Z,99928.53
2023-05-21T07:48:46.577Z,99918.56
2023-05-21T07:53:48.355Z,99907.31
2023-05-21T07:58:53.909Z,99929.63
2023-05-21T08:03:55.984Z,99916.38
2023-05-21T08:08:57.900Z,99916.06
2023-05-21T08:13:59.872Z,99930.66
2023-05-21T08:19:02.485Z,99925.25
2023-05-21T08:24:04.449Z,99931.94
2023-05-21T08:29:07.009Z,99927.84
2023-05-21T08:34:08.999Z,99924.56
2023-05-21T08:39:18.538Z,99918.72
2023-05-21T08:44:22.049Z,99926.34
2023-05-21T08:49:27.446Z,99916.19
2023-05-21T08:54:30.884Z,99910.69
2023-05-21T08:59:32.872Z,99911.19
2023-05-21T09:04:38.839Z,99898.88
2023-05-21T09:09:48.901Z,99902.59
2023-05-21T09:14:51.061Z,99905.78
2023-05-21T09:20:14.492Z,99906.31
2023-05-21T09:25:23.516Z,99911.97
2023-05-21T09:30:28.547Z,99910.44
2023-05-21T09:35:33.468Z,99901.16
2023-05-21T09:40:35.934Z,99901.72
2023-05-21T09:45:38.113Z,99896.66
2023-05-21T09:50:40.971Z,99886.69
2023-05-21T09:55:43.279Z,99888.81
2023-05-21T10:00:45.864Z,99889.78
2023-05-21T10:05:47.590Z,99890.41
2023-05-21T10:10:50.098Z,99890.81
2023-05-21T10:15:59.458Z,99893.75
2023-05-21T10:21:01.807Z,99890.81
2023-05-21T10:26:04.189Z,99890.25
2023-05-21T10:31:06.728Z,99882.47
2023-05-21T10:36:08.775Z,99881.06
2023-05-21T10:41:12.371Z,99872.69
2023-05-21T10:46:32.418Z,99883.78
2023-05-21T10:51:58.642Z,99872.75
2023-05-21T10:57:24.747Z,99855.09
2023-05-21T11:02:27.586Z,99862.66
2023-05-21T11:07:56.515Z,99856.72
2023-05-21T11:13:12.253Z,99850.19
2023-05-21T11:18:14.248Z,99852.28
2023-05-21T11:23:15.901Z,99857.44
2023-05-21T11:28:32.952Z,99851.47
2023-05-21T11:33:34.623Z,99855.56
2023-05-21T11:38:37.547Z,99855.09
2023-05-21T11:43:43.912Z,99856.47
2023-05-21T11:48:46.729Z,99854.09
2023-05-21T11:53:48.958Z,99840.97
2023-05-21T11:58:50.715Z,99848.75
2023-05-21T12:03:52.460Z,99849.59
2023-05-21T12:08:58.216Z,99835.16
2023-05-21T12:14:00.198Z,99840.66
2023-05-21T12:19:05.485Z,99828.81
2023-05-21T12:24:07.181Z,99823.81
2023-05-21T12:29:08.978Z,99826.19
2023-05-21T12:34:10.872Z,99816.88
2023-05-21T12:39:12.686Z,99812.19
2023-05-21T12:44:14.591Z,99807.75
2023-05-21T12:49:34.001Z,99813.75
2023-05-21T12:54:37.752Z,99803.19
2023-05-21T12:59:51.430Z,99801.81
2023-05-21T13:05:04.861Z,99797.94
2023-05-21T13:10:07.513Z,99788.22
2023-05-21T13:15:10.497Z,99787.41
2023-05-21T13:20:15.044Z,99783.75
2023-05-21T13:25:21.526Z,99775.25
2023-05-21T13:30:23.343Z,99776.78
2023-05-21T13:35:25.208Z,99774.16
2023-05-21T13:40:26.882Z,99769.91
2023-05-21T13:45:29.379Z,99777.53
2023-05-21T13:50:31.414Z,99772.28
2023-05-21T13:55:33.572Z,99759.59
2023-05-21T14:00:35.675Z,99773.16
2023-05-21T14:05:37.559Z,99763.91
2023-05-21T14:10:39.226Z,99753.47
2023-05-21T14:15:41.598Z,99763.59
2023-05-21T14:20:43.220Z,99763.75
2023-05-21T14:25:44.985Z,99751.88
2023-05-21T14:30:46.618Z,99745.69
2023-05-21T14:35:48.879Z,99734.75
2023-05-21T14:40:50.635Z,99742.22
2023-05-21T14:45:52.725Z,99726.31
2023-05-21T14:50:54.477Z,99720.94
2023-05-21T14:55:56.091Z,99725.69
2023-05-21T15:00:58.100Z,99725.69
2023-05-21T15:05:59.809Z,99723.59
2023-05-21T15:11:01.497Z,99725.84
2023-05-21T15:16:03.731Z,99729.44
2023-05-21T15:21:05.765Z,99721.59
2023-05-21T15:26:09.047Z,99723.88
2023-05-21T15:31:11.444Z,99723.19
2023-05-21T15:36:13.384Z,99726.63
2023-05-21T15:41:15.071Z,99724.66
2023-05-21T15:46:16.774Z,99729.31
2023-05-21T15:51:18.414Z,99735.13
2023-05-21T15:56:20.060Z,99731.31
2023-05-21T16:01:22.305Z,99730.47
2023-05-21T16:06:24.487Z,99735.28
2023-05-21T16:11:27.088Z,99740.47
2023-05-21T16:16:28.856Z,99749.81
2023-05-21T16:21:31.916Z,99749.41
2023-05-21T16:26:33.645Z,99741.47
2023-05-21T16:31:35.978Z,99742.31
2023-05-21T16:36:38.370Z,99744.47
2023-05-21T16:41:40.044Z,99735.66
2023-05-21T16:46:42.280Z,99736.75
2023-05-21T16:51:43.882Z,99730.75
2023-05-21T16:56:45.519Z,99739.69
2023-05-21T17:01:47.408Z,99732.69
2023-05-21T17:06:49.136Z,99724.56
2023-05-21T17:11:50.992Z,99724.59
2023-05-21T17:16:52.752Z,99729.09
2023-05-21T17:21:55.329Z,99728.13
2023-05-21T17:26:57.015Z,99727.78
2023-05-21T17:31:59.801Z,99722.97
2023-05-21T17:37:01.559Z,99730.81
2023-05-21T17:42:03.310Z,99729.97
2023-05-21T17:47:06.625Z,99731.66
2023-05-21T17:52:08.444Z,99737.91
2023-05-21T17:57:10.149Z,99734.59
2023-05-21T18:02:13.174Z,99728.22
2023-05-21T18:07:14.836Z,99716.38
2023-05-21T18:12:16.534Z,99730.88
2023-05-21T18:17:18.248Z,99730.38
2023-05-21T18:22:19.900Z,99733.06
2023-05-21T18:27:21.540Z,99738.66
2023-05-21T18:32:23.447Z,99739.69
2023-05-21T18:37:27.120Z,99740.75
2023-05-21T18:42:29.019Z,99744.66
2023-05-21T18:47:30.917Z,99750.38
2023-05-21T18:52:32.769Z,99752.59
2023-05-21T18:57:34.787Z,99755.06
2023-05-21T19:02:37.096Z,99769.25
2023-05-21T19:07:39.773Z,99769.00
2023-05-21T19:12:43.493Z,99774.75
2023-05-21T19:17:45.121Z,99771.75
2023-05-21T19:22:46.777Z,99789.56
2023-05-21T19:27:48.523Z,99792.06
2023-05-21T19:32:50.213Z,99797.56
2023-05-21T19:37:51.925Z,99793.38
2023-05-21T19:42:53.635Z,99798.31
2023-05-21T19:47:56.430Z,99793.50
2023-05-21T19:52:58.156Z,99804.59
2023-05-21T19:57:59.988Z,99799.19
2023-05-21T20:03:01.847Z,99795.13
2023-05-21T20:08:04.274Z,99797.97
2023-05-21T20:13:06.009Z,99795.72
2023-05-21T20:18:07.789Z,99785.91
2023-05-21T20:23:09.513Z,99781.19
2023-05-21T20:28:11.311Z,99782.56
2023-05-21T20:33:13.603Z,99785.59
2023-05-21T20:38:15.947Z,99787.38
2023-05-21T20:43:21.027Z,99791.25
2023-05-21T20:48:22.672Z,99787.31
2023-05-21T20:53:25.273Z,99802.53
2023-05-21T20:58:27.064Z,99809.88
2023-05-21T21:03:29.854Z,99803.31
2023-05-21T21:08:31.939Z,99799.75
2023-05-21T21:13:34.935Z,99804.09
2023-05-21T21:18:36.773Z,99795.13
2023-05-21T21:23:38.464Z,99796.47
2023-05-21T21:28:40.190Z,99795.63
2023-05-21T21:33:41.872Z,99790.63
2023-05-21T21:38:43.553Z,99792.56
2023-05-21T21:43:45.401Z,99791.13
2023-05-21T21:48:48.937Z,99801.66
2023-05-21T21:53:51.106Z,99788.50
2023-05-21T21:58:52.750Z,99792.13
2023-05-21T22:03:54.482Z,99781.53
2023-05-21T22:08:56.166Z,99789.47
2023-05-21T22:14:00.336Z,99781.00
2023-05-21T22:19:02.383Z,99789.63
2023-05-21T22:24:04.373Z,99784.75
2023-05-21T22:29:06.162Z,99788.25
2023-05-21T22:34:07.824Z,99786.81
2023-05-21T22:39:09.441Z,99786.38
2023-05-21T22:44:11.176Z,99782.38
2023-05-21T22:49:13.167Z,99782.56
2023-05-21T22:54:14.779Z,99792.88
2023-05-21T22:59:16.394Z,99786.34
2023-05-21T23:04:18.211Z,99784.13
2023-05-21T23:09:21.090Z,99793.63
2023-05-21T23:14:22.709Z,99787.81
2023-05-21T23:19:24.458Z,99790.50
2023-05-21T23:24:26.106Z,99796.66
2023-05-21T23:29:28.095Z,99780.81
2023-05-21T23:34:29.771Z,99775.88
2023-05-21T23:39:31.420Z,99782.81
2023-05-21T23:44:33.293Z,99775.28
2023-05-21T23:49:34.956Z,99777.97
2023-05-21T23:54:36.614Z,99767.97
2023-05-21T23:59:38.220Z,99763.81
